sensor_id;sensor_type;location;lat;lon;timestamp;temperature;humidity
13880;DHT22;7010;48.200;16.332;2022-08-03T00:00:32;22.00;99.90
13880;DHT22;7010;48.200;16.332;2022-08-03T00:03:02;22.10;99.90
13880;DHT22;7010;48.200;16.332;2022-08-03T00:05:31;22.10;99.90
13880;DHT22;7010;48.200;16.332;2022-08-03T00:08:00;22.00;99.90
13880;DHT22;7010;48.200;16.332;2022-08-03T00:10:30;22.00;99.90
13880;DHT22;7010;48.200;16.332;2022-08-03T00:12:58;22.00;99.90
13880;DHT22;7010;48.200;16.332;2022-08-03T00:15:26;22.00;99.90
13880;DHT22;7010;48.200;16.332;2022-08-03T00:17:54;21.90;99.90
13880;DHT22;7010;48.200;16.332;2022-08-03T00:20:24;21.90;99.90
13880;DHT22;7010;48.200;16.332;2022-08-03T00:22:52;21.90;99.90
13880;DHT22;7010;48.200;16.332;2022-08-03T00:25:21;21.90;99.90
13880;DHT22;7010;48.200;16.332;2022-08-03T00:27:49;21.80;99.90
13880;DHT22;7010;48.200;16.332;2022-08-03T00:30:18;21.80;99.90
13880;DHT22;7010;48.200;16.332;2022-08-03T00:32:46;21.80;99.90
13880;DHT22;7010;48.200;16.332;2022-08-03T00:35:15;21.70;99.90
13880;DHT22;7010;48.200;16.332;2022-08-03T00:38:05;21.70;99.90
13880;DHT22;7010;48.200;16.332;2022-08-03T00:40:34;21.60;99.90
13880;DHT22;7010;48.200;16.332;2022-08-03T00:43:04;21.60;99.90
13880;DHT22;7010;48.200;16.332;2022-08-03T00:45:34;21.60;99.90
13880;DHT22;7010;48.200;16.332;2022-08-03T00:48:04;21.60;99.90
13880;DHT22;7010;48.200;16.332;2022-08-03T00:50:53;21.50;99.90
13880;DHT22;7010;48.200;16.332;2022-08-03T00:53:24;21.50;99.90
13880;DHT22;7010;48.200;16.332;2022-08-03T00:55:52;21.40;99.90
13880;DHT22;7010;48.200;16.332;2022-08-03T00:58:20;21.40;99.90
13880;DHT22;7010;48.200;16.332;2022-08-03T01:00:50;21.40;99.90
13880;DHT22;7010;48.200;16.332;2022-08-03T01:03:18;21.40;99.90
13880;DHT22;7010;48.200;16.332;2022-08-03T01:05:52;21.40;99.90
13880;DHT22;7010;48.200;16.332;2022-08-03T01:08:32;21.40;99.90
13880;DHT22;7010;48.200;16.332;2022-08-03T01:11:07;21.30;99.90
13880;DHT22;7010;48.200;16.332;2022-08-03T01:13:46;21.30;99.90
13880;DHT22;7010;48.200;16.332;2022-08-03T01:16:41;21.20;99.90
13880;DHT22;7010;48.200;16.332;2022-08-03T01:19:23;21.20;99.90
13880;DHT22;7010;48.200;16.332;2022-08-03T01:22:03;21.10;99.90
13880;DHT22;7010;48.200;16.332;2022-08-03T01:24:45;21.10;99.90
13880;DHT22;7010;48.200;16.332;2022-08-03T01:27:20;21.10;99.90
13880;DHT22;7010;48.200;16.332;2022-08-03T01:29:58;21.10;99.90
13880;DHT22;7010;48.200;16.332;2022-08-03T01:32:33;21.10;99.90
13880;DHT22;7010;48.200;16.332;2022-08-03T01:35:27;21.10;99.90
13880;DHT22;7010;48.200;16.332;2022-08-03T01:37:58;21.10;99.90
13880;DHT22;7010;48.200;16.332;2022-08-03T01:40:28;21.10;99.90
13880;DHT22;7010;48.200;16.332;2022-08-03T01:43:01;21.10;99.90
13880;DHT22;7010;48.200;16.332;2022-08-03T01:45:32;21.10;99.90
13880;DHT22;7010;48.200;16.332;2022-08-03T01:48:01;21.10;99.90
13880;DHT22;7010;48.200;16.332;2022-08-03T01:50:31;21.10;99.90
13880;DHT22;7010;48.200;16.332;2022-08-03T01:53:01;21.10;99.90
13880;DHT22;7010;48.200;16.332;2022-08-03T01:55:30;21.10;99.90
13880;DHT22;7010;48.200;16.332;2022-08-03T01:58:02;21.10;99.90
13880;DHT22;7010;48.200;16.332;2022-08-03T02:00:34;21.10;99.90
13880;DHT22;7010;48.200;16.332;2022-08-03T02:03:04;21.10;99.90
13880;DHT22;7010;48.200;16.332;2022-08-03T02:05:34;21.10;99.90
13880;DHT22;7010;48.200;16.332;2022-08-03T02:08:04;21.00;99.90
13880;DHT22;7010;48.200;16.332;2022-08-03T02:10:34;21.00;99.90
13880;DHT22;7010;48.200;16.332;2022-08-03T02:13:05;21.00;99.90
13880;DHT22;7010;48.200;16.332;2022-08-03T02:15:37;21.00;99.90
13880;DHT22;7010;48.200;16.332;2022-08-03T02:18:07;21.00;99.90
13880;DHT22;7010;48.200;16.332;2022-08-03T02:20:37;20.90;99.90
13880;DHT22;7010;48.200;16.332;2022-08-03T02:23:06;20.90;99.90
13880;DHT22;7010;48.200;16.332;2022-08-03T02:25:39;20.80;99.90
13880;DHT22;7010;48.200;16.332;2022-08-03T02:28:11;20.70;99.90
13880;DHT22;7010;48.200;16.332;2022-08-03T02:30:52;20.70;99.90
13880;DHT22;7010;48.200;16.332;2022-08-03T02:33:25;20.70;99.90
13880;DHT22;7010;48.200;16.332;2022-08-03T02:35:55;20.70;99.90
13880;DHT22;7010;48.200;16.332;2022-08-03T02:38:32;20.70;99.90
13880;DHT22;7010;48.200;16.332;2022-08-03T02:41:05;20.70;99.90
13880;DHT22;7010;48.200;16.332;2022-08-03T02:43:35;20.70;99.90
13880;DHT22;7010;48.200;16.332;2022-08-03T02:46:30;20.70;99.90
13880;DHT22;7010;48.200;16.332;2022-08-03T02:49:00;20.70;99.90
13880;DHT22;7010;48.200;16.332;2022-08-03T02:51:51;20.70;99.90
13880;DHT22;7010;48.200;16.332;2022-08-03T02:54:21;20.60;99.90
13880;DHT22;7010;48.200;16.332;2022-08-03T02:56:52;20.60;99.90
13880;DHT22;7010;48.200;16.332;2022-08-03T02:59:21;20.60;99.90
13880;DHT22;7010;48.200;16.332;2022-08-03T03:01:52;20.60;99.90
13880;DHT22;7010;48.200;16.332;2022-08-03T03:04:21;20.60;99.90
13880;DHT22;7010;48.200;16.332;2022-08-03T03:06:59;20.60;99.90
13880;DHT22;7010;48.200;16.332;2022-08-03T03:09:31;20.50;99.90
13880;DHT22;7010;48.200;16.332;2022-08-03T03:12:09;20.50;99.90
13880;DHT22;7010;48.200;16.332;2022-08-03T03:14:39;20.50;99.90
13880;DHT22;7010;48.200;16.332;2022-08-03T03:17:10;20.50;99.90
13880;DHT22;7010;48.200;16.332;2022-08-03T03:19:39;20.40;99.90
13880;DHT22;7010;48.200;16.332;2022-08-03T03:22:09;20.40;99.90
13880;DHT22;7010;48.200;16.332;2022-08-03T03:24:39;20.40;99.90
13880;DHT22;7010;48.200;16.332;2022-08-03T03:27:08;20.40;99.90
13880;DHT22;7010;48.200;16.332;2022-08-03T03:29:42;20.40;99.90
13880;DHT22;7010;48.200;16.332;2022-08-03T03:32:12;20.30;99.90
13880;DHT22;7010;48.200;16.332;2022-08-03T03:34:41;20.30;99.90
13880;DHT22;7010;48.200;16.332;2022-08-03T03:37:10;20.30;99.90
13880;DHT22;7010;48.200;16.332;2022-08-03T03:39:38;20.30;99.90
13880;DHT22;7010;48.200;16.332;2022-08-03T03:42:07;20.20;99.90
13880;DHT22;7010;48.200;16.332;2022-08-03T03:44:35;20.30;99.90
13880;DHT22;7010;48.200;16.332;2022-08-03T03:47:03;20.20;99.90
13880;DHT22;7010;48.200;16.332;2022-08-03T03:49:35;20.30;99.90
13880;DHT22;7010;48.200;16.332;2022-08-03T03:52:04;20.20;99.90
13880;DHT22;7010;48.200;16.332;2022-08-03T03:54:39;20.20;99.90
13880;DHT22;7010;48.200;16.332;2022-08-03T03:57:08;20.20;99.90
13880;DHT22;7010;48.200;16.332;2022-08-03T03:59:40;20.20;99.90
13880;DHT22;7010;48.200;16.332;2022-08-03T04:02:10;20.30;99.90
13880;DHT22;7010;48.200;16.332;2022-08-03T04:04:40;20.20;99.90
13880;DHT22;7010;48.200;16.332;2022-08-03T04:07:26;20.20;99.90
13880;DHT22;7010;48.200;16.332;2022-08-03T04:10:14;20.20;99.90
13880;DHT22;7010;48.200;16.332;2022-08-03T04:13:03;20.20;99.90
13880;DHT22;7010;48.200;16.332;2022-08-03T04:15:34;20.20;99.90
13880;DHT22;7010;48.200;16.332;2022-08-03T04:18:06;20.10;99.90
13880;DHT22;7010;48.200;16.332;2022-08-03T04:20:38;20.10;99.90
13880;DHT22;7010;48.200;16.332;2022-08-03T04:23:07;20.10;99.90
13880;DHT22;7010;48.200;16.332;2022-08-03T04:25:42;20.10;99.90
13880;DHT22;7010;48.200;16.332;2022-08-03T04:28:11;20.10;99.90
13880;DHT22;7010;48.200;16.332;2022-08-03T04:30:58;20.10;99.90
13880;DHT22;7010;48.200;16.332;2022-08-03T04:33:28;20.20;99.90
13880;DHT22;7010;48.200;16.332;2022-08-03T04:36:01;20.10;99.90
13880;DHT22;7010;48.200;16.332;2022-08-03T04:38:34;20.20;99.90
13880;DHT22;7010;48.200;16.332;2022-08-03T04:41:06;20.20;99.90
13880;DHT22;7010;48.200;16.332;2022-08-03T04:43:37;20.20;99.90
13880;DHT22;7010;48.200;16.332;2022-08-03T04:46:07;20.20;99.90
13880;DHT22;7010;48.200;16.332;2022-08-03T04:48:36;20.20;99.90
13880;DHT22;7010;48.200;16.332;2022-08-03T04:51:12;20.20;99.90
13880;DHT22;7010;48.200;16.332;2022-08-03T04:53:42;20.20;99.90
13880;DHT22;7010;48.200;16.332;2022-08-03T04:56:11;20.20;99.90
13880;DHT22;7010;48.200;16.332;2022-08-03T04:58:39;20.20;99.90
13880;DHT22;7010;48.200;16.332;2022-08-03T05:01:08;20.20;99.90
13880;DHT22;7010;48.200;16.332;2022-08-03T05:03:36;20.20;99.90
13880;DHT22;7010;48.200;16.332;2022-08-03T05:06:05;20.30;99.90
13880;DHT22;7010;48.200;16.332;2022-08-03T05:08:38;20.30;99.90
13880;DHT22;7010;48.200;16.332;2022-08-03T05:11:14;20.30;99.90
13880;DHT22;7010;48.200;16.332;2022-08-03T05:13:43;20.30;99.90
13880;DHT22;7010;48.200;16.332;2022-08-03T05:16:11;20.40;99.90
13880;DHT22;7010;48.200;16.332;2022-08-03T05:18:41;20.40;99.90
13880;DHT22;7010;48.200;16.332;2022-08-03T05:21:09;20.40;99.90
13880;DHT22;7010;48.200;16.332;2022-08-03T05:23:41;20.50;99.90
13880;DHT22;7010;48.200;16.332;2022-08-03T05:26:09;20.50;99.90
13880;DHT22;7010;48.200;16.332;2022-08-03T05:28:38;20.50;99.90
13880;DHT22;7010;48.200;16.332;2022-08-03T05:31:17;20.60;99.90
13880;DHT22;7010;48.200;16.332;2022-08-03T05:33:46;20.60;99.90
13880;DHT22;7010;48.200;16.332;2022-08-03T05:36:15;20.70;99.90
13880;DHT22;7010;48.200;16.332;2022-08-03T05:38:44;20.70;99.90
13880;DHT22;7010;48.200;16.332;2022-08-03T05:41:13;20.80;99.90
13880;DHT22;7010;48.200;16.332;2022-08-03T05:43:50;20.80;99.90
13880;DHT22;7010;48.200;16.332;2022-08-03T05:46:18;20.90;99.90
13880;DHT22;7010;48.200;16.332;2022-08-03T05:48:47;20.90;99.90
13880;DHT22;7010;48.200;16.332;2022-08-03T05:51:16;21.00;99.90
13880;DHT22;7010;48.200;16.332;2022-08-03T05:53:45;21.00;99.90
13880;DHT22;7010;48.200;16.332;2022-08-03T05:56:14;21.10;99.90
13880;DHT22;7010;48.200;16.332;2022-08-03T05:58:43;21.10;99.90
13880;DHT22;7010;48.200;16.332;2022-08-03T06:01:13;21.10;99.90
13880;DHT22;7010;48.200;16.332;2022-08-03T06:03:41;21.20;99.90
13880;DHT22;7010;48.200;16.332;2022-08-03T06:06:10;21.20;99.90
13880;DHT22;7010;48.200;16.332;2022-08-03T06:08:39;21.30;99.90
13880;DHT22;7010;48.200;16.332;2022-08-03T06:11:08;21.40;99.90
13880;DHT22;7010;48.200;16.332;2022-08-03T06:13:37;21.40;99.90
13880;DHT22;7010;48.200;16.332;2022-08-03T06:16:06;21.50;99.90
13880;DHT22;7010;48.200;16.332;2022-08-03T06:18:34;21.60;99.90
13880;DHT22;7010;48.200;16.332;2022-08-03T06:21:03;21.70;99.90
13880;DHT22;7010;48.200;16.332;2022-08-03T06:23:45;21.80;99.90
13880;DHT22;7010;48.200;16.332;2022-08-03T06:26:23;21.80;99.90
13880;DHT22;7010;48.200;16.332;2022-08-03T06:28:52;21.90;99.90
13880;DHT22;7010;48.200;16.332;2022-08-03T06:31:22;22.00;99.90
13880;DHT22;7010;48.200;16.332;2022-08-03T06:34:03;22.10;99.90
13880;DHT22;7010;48.200;16.332;2022-08-03T06:36:52;22.20;99.90
13880;DHT22;7010;48.200;16.332;2022-08-03T06:39:28;22.30;99.90
13880;DHT22;7010;48.200;16.332;2022-08-03T06:41:57;22.50;99.90
13880;DHT22;7010;48.200;16.332;2022-08-03T06:44:26;22.60;99.90
13880;DHT22;7010;48.200;16.332;2022-08-03T06:46:54;22.80;99.90
13880;DHT22;7010;48.200;16.332;2022-08-03T06:49:22;22.90;99.90
13880;DHT22;7010;48.200;16.332;2022-08-03T06:51:51;23.10;99.90
13880;DHT22;7010;48.200;16.332;2022-08-03T06:54:33;23.30;99.90
13880;DHT22;7010;48.200;16.332;2022-08-03T06:57:04;23.40;99.90
13880;DHT22;7010;48.200;16.332;2022-08-03T06:59:34;23.40;99.90
13880;DHT22;7010;48.200;16.332;2022-08-03T07:02:22;23.60;99.90
13880;DHT22;7010;48.200;16.332;2022-08-03T07:04:54;23.80;99.90
13880;DHT22;7010;48.200;16.332;2022-08-03T07:07:22;24.00;99.90
13880;DHT22;7010;48.200;16.332;2022-08-03T07:09:50;24.10;99.90
13880;DHT22;7010;48.200;16.332;2022-08-03T07:12:26;24.20;99.90
13880;DHT22;7010;48.200;16.332;2022-08-03T07:14:55;24.50;99.90
13880;DHT22;7010;48.200;16.332;2022-08-03T07:17:29;24.70;99.90
13880;DHT22;7010;48.200;16.332;2022-08-03T07:19:58;24.80;99.90
13880;DHT22;7010;48.200;16.332;2022-08-03T07:22:26;24.90;99.90
13880;DHT22;7010;48.200;16.332;2022-08-03T07:24:55;25.20;99.90
13880;DHT22;7010;48.200;16.332;2022-08-03T07:27:25;25.30;99.90
13880;DHT22;7010;48.200;16.332;2022-08-03T07:29:55;25.70;99.90
13880;DHT22;7010;48.200;16.332;2022-08-03T07:32:24;25.60;99.90
13880;DHT22;7010;48.200;16.332;2022-08-03T07:34:53;26.10;99.90
13880;DHT22;7010;48.200;16.332;2022-08-03T07:37:32;26.20;99.90
13880;DHT22;7010;48.200;16.332;2022-08-03T07:40:02;26.40;99.90
13880;DHT22;7010;48.200;16.332;2022-08-03T07:42:32;26.40;99.90
13880;DHT22;7010;48.200;16.332;2022-08-03T07:45:04;26.60;99.90
13880;DHT22;7010;48.200;16.332;2022-08-03T07:47:42;26.80;99.90
13880;DHT22;7010;48.200;16.332;2022-08-03T07:50:20;27.20;99.90
13880;DHT22;7010;48.200;16.332;2022-08-03T07:52:49;27.50;99.90
13880;DHT22;7010;48.200;16.332;2022-08-03T07:55:22;28.10;99.90
13880;DHT22;7010;48.200;16.332;2022-08-03T07:58:04;29.00;99.60
13880;DHT22;7010;48.200;16.332;2022-08-03T08:00:33;29.50;96.60
13880;DHT22;7010;48.200;16.332;2022-08-03T08:03:02;29.90;95.70
13880;DHT22;7010;48.200;16.332;2022-08-03T08:05:30;30.20;94.60
13880;DHT22;7010;48.200;16.332;2022-08-03T08:07:59;30.50;94.50
13880;DHT22;7010;48.200;16.332;2022-08-03T08:10:28;31.10;92.80
13880;DHT22;7010;48.200;16.332;2022-08-03T08:12:56;31.00;91.70
13880;DHT22;7010;48.200;16.332;2022-08-03T08:15:26;31.30;90.50
13880;DHT22;7010;48.200;16.332;2022-08-03T08:17:59;31.60;89.10
13880;DHT22;7010;48.200;16.332;2022-08-03T08:20:30;31.40;87.40
13880;DHT22;7010;48.200;16.332;2022-08-03T08:23:06;31.70;89.60
13880;DHT22;7010;48.200;16.332;2022-08-03T08:25:55;31.90;86.20
13880;DHT22;7010;48.200;16.332;2022-08-03T08:28:23;32.50;88.20
13880;DHT22;7010;48.200;16.332;2022-08-03T08:31:00;32.90;84.10
13880;DHT22;7010;48.200;16.332;2022-08-03T08:33:29;33.80;82.60
13880;DHT22;7010;48.200;16.332;2022-08-03T08:36:17;34.20;79.70
13880;DHT22;7010;48.200;16.332;2022-08-03T08:38:46;34.00;79.90
13880;DHT22;7010;48.200;16.332;2022-08-03T08:41:15;34.10;74.50
13880;DHT22;7010;48.200;16.332;2022-08-03T08:43:44;34.00;75.90
13880;DHT22;7010;48.200;16.332;2022-08-03T08:46:15;34.40;75.20
13880;DHT22;7010;48.200;16.332;2022-08-03T08:48:50;34.50;71.00
13880;DHT22;7010;48.200;16.332;2022-08-03T08:51:20;34.70;72.20
13880;DHT22;7010;48.200;16.332;2022-08-03T08:53:51;35.00;74.50
13880;DHT22;7010;48.200;16.332;2022-08-03T08:56:22;35.70;72.80
13880;DHT22;7010;48.200;16.332;2022-08-03T08:58:58;35.50;66.90
13880;DHT22;7010;48.200;16.332;2022-08-03T09:01:28;35.30;67.70
13880;DHT22;7010;48.200;16.332;2022-08-03T09:03:57;35.70;68.90
13880;DHT22;7010;48.200;16.332;2022-08-03T09:06:25;36.20;67.50
13880;DHT22;7010;48.200;16.332;2022-08-03T09:08:53;36.00;69.70
13880;DHT22;7010;48.200;16.332;2022-08-03T09:11:22;36.40;66.20
13880;DHT22;7010;48.200;16.332;2022-08-03T09:14:11;36.70;66.90
13880;DHT22;7010;48.200;16.332;2022-08-03T09:17:02;37.30;62.80
13880;DHT22;7010;48.200;16.332;2022-08-03T09:19:31;36.90;63.20
13880;DHT22;7010;48.200;16.332;2022-08-03T09:22:07;37.00;64.50
13880;DHT22;7010;48.200;16.332;2022-08-03T09:24:37;36.90;63.10
13880;DHT22;7010;48.200;16.332;2022-08-03T09:27:11;36.70;62.90
13880;DHT22;7010;48.200;16.332;2022-08-03T09:29:40;36.50;64.00
13880;DHT22;7010;48.200;16.332;2022-08-03T09:32:11;37.20;62.70
13880;DHT22;7010;48.200;16.332;2022-08-03T09:34:41;37.90;62.40
13880;DHT22;7010;48.200;16.332;2022-08-03T09:37:13;37.90;58.90
13880;DHT22;7010;48.200;16.332;2022-08-03T09:39:42;38.00;59.90
13880;DHT22;7010;48.200;16.332;2022-08-03T09:42:12;38.00;57.70
13880;DHT22;7010;48.200;16.332;2022-08-03T09:44:42;37.80;56.40
13880;DHT22;7010;48.200;16.332;2022-08-03T09:47:14;37.70;56.50
13880;DHT22;7010;48.200;16.332;2022-08-03T09:49:57;37.50;55.50
13880;DHT22;7010;48.200;16.332;2022-08-03T09:52:32;37.10;54.70
13880;DHT22;7010;48.200;16.332;2022-08-03T09:55:16;36.90;54.50
13880;DHT22;7010;48.200;16.332;2022-08-03T09:58:06;37.30;53.20
13880;DHT22;7010;48.200;16.332;2022-08-03T10:00:52;37.80;51.80
13880;DHT22;7010;48.200;16.332;2022-08-03T10:03:23;37.50;51.90
13880;DHT22;7010;48.200;16.332;2022-08-03T10:05:51;37.60;54.50
13880;DHT22;7010;48.200;16.332;2022-08-03T10:08:25;37.90;52.10
13880;DHT22;7010;48.200;16.332;2022-08-03T10:10:53;38.40;51.40
13880;DHT22;7010;48.200;16.332;2022-08-03T10:13:24;38.60;49.90
13880;DHT22;7010;48.200;16.332;2022-08-03T10:15:52;38.70;49.80
13880;DHT22;7010;48.200;16.332;2022-08-03T10:18:42;38.80;50.50
13880;DHT22;7010;48.200;16.332;2022-08-03T10:21:15;38.60;50.10
13880;DHT22;7010;48.200;16.332;2022-08-03T10:23:45;38.80;49.90
13880;DHT22;7010;48.200;16.332;2022-08-03T10:26:18;39.30;49.60
13880;DHT22;7010;48.200;16.332;2022-08-03T10:28:49;39.70;48.60
13880;DHT22;7010;48.200;16.332;2022-08-03T10:31:19;40.10;48.20
13880;DHT22;7010;48.200;16.332;2022-08-03T10:33:52;40.20;48.40
13880;DHT22;7010;48.200;16.332;2022-08-03T10:36:26;40.20;46.80
13880;DHT22;7010;48.200;16.332;2022-08-03T10:38:58;40.30;49.20
13880;DHT22;7010;48.200;16.332;2022-08-03T10:41:32;40.50;46.50
13880;DHT22;7010;48.200;16.332;2022-08-03T10:44:04;40.70;46.80
13880;DHT22;7010;48.200;16.332;2022-08-03T10:46:34;40.50;45.00
13880;DHT22;7010;48.200;16.332;2022-08-03T10:49:14;40.60;48.00
13880;DHT22;7010;48.200;16.332;2022-08-03T10:51:59;40.40;46.50
13880;DHT22;7010;48.200;16.332;2022-08-03T10:54:40;40.50;45.00
13880;DHT22;7010;48.200;16.332;2022-08-03T10:57:44;40.70;47.80
13880;DHT22;7010;48.200;16.332;2022-08-03T11:00:15;40.70;43.70
13880;DHT22;7010;48.200;16.332;2022-08-03T11:03:07;40.60;43.80
13880;DHT22;7010;48.200;16.332;2022-08-03T11:05:39;40.40;44.20
13880;DHT22;7010;48.200;16.332;2022-08-03T11:08:28;40.10;45.00
13880;DHT22;7010;48.200;16.332;2022-08-03T11:10:59;39.80;46.70
13880;DHT22;7010;48.200;16.332;2022-08-03T11:13:29;39.60;46.90
13880;DHT22;7010;48.200;16.332;2022-08-03T11:16:02;39.70;45.80
13880;DHT22;7010;48.200;16.332;2022-08-03T11:18:35;39.90;47.20
13880;DHT22;7010;48.200;16.332;2022-08-03T11:21:06;40.40;47.20
13880;DHT22;7010;48.200;16.332;2022-08-03T11:23:44;40.70;44.60
13880;DHT22;7010;48.200;16.332;2022-08-03T11:26:31;40.80;46.10
13880;DHT22;7010;48.200;16.332;2022-08-03T11:29:27;40.90;45.90
13880;DHT22;7010;48.200;16.332;2022-08-03T11:31:56;41.20;44.00
13880;DHT22;7010;48.200;16.332;2022-08-03T11:34:24;41.10;44.40
13880;DHT22;7010;48.200;16.332;2022-08-03T11:37:20;41.30;43.90
13880;DHT22;7010;48.200;16.332;2022-08-03T11:39:53;41.40;43.50
13880;DHT22;7010;48.200;16.332;2022-08-03T11:42:41;41.40;43.80
13880;DHT22;7010;48.200;16.332;2022-08-03T11:45:14;41.00;43.60
13880;DHT22;7010;48.200;16.332;2022-08-03T11:47:43;40.70;43.40
13880;DHT22;7010;48.200;16.332;2022-08-03T11:50:17;40.80;43.60
13880;DHT22;7010;48.200;16.332;2022-08-03T11:52:49;40.90;45.20
13880;DHT22;7010;48.200;16.332;2022-08-03T11:55:19;40.90;42.80
13880;DHT22;7010;48.200;16.332;2022-08-03T11:57:48;40.50;42.30
13880;DHT22;7010;48.200;16.332;2022-08-03T12:00:36;40.60;43.20
13880;DHT22;7010;48.200;16.332;2022-08-03T12:03:06;40.40;42.40
13880;DHT22;7010;48.200;16.332;2022-08-03T12:05:37;40.30;43.50
13880;DHT22;7010;48.200;16.332;2022-08-03T12:08:08;40.40;43.60
13880;DHT22;7010;48.200;16.332;2022-08-03T12:10:38;40.50;42.00
13880;DHT22;7010;48.200;16.332;2022-08-03T12:13:07;40.40;42.30
13880;DHT22;7010;48.200;16.332;2022-08-03T12:15:56;40.50;42.20
13880;DHT22;7010;48.200;16.332;2022-08-03T12:18:25;40.30;42.60
13880;DHT22;7010;48.200;16.332;2022-08-03T12:21:03;39.50;42.20
13880;DHT22;7010;48.200;16.332;2022-08-03T12:23:34;39.30;42.30
13880;DHT22;7010;48.200;16.332;2022-08-03T12:26:05;39.30;42.30
13880;DHT22;7010;48.200;16.332;2022-08-03T12:28:33;39.40;43.10
13880;DHT22;7010;48.200;16.332;2022-08-03T12:31:06;39.60;43.30
13880;DHT22;7010;48.200;16.332;2022-08-03T12:33:59;39.60;43.20
13880;DHT22;7010;48.200;16.332;2022-08-03T12:36:30;39.70;43.60
13880;DHT22;7010;48.200;16.332;2022-08-03T12:39:03;39.80;42.20
13880;DHT22;7010;48.200;16.332;2022-08-03T12:41:32;39.80;40.60
13880;DHT22;7010;48.200;16.332;2022-08-03T12:44:01;39.50;40.60
13880;DHT22;7010;48.200;16.332;2022-08-03T12:46:32;39.40;40.10
13880;DHT22;7010;48.200;16.332;2022-08-03T12:49:04;39.30;42.40
13880;DHT22;7010;48.200;16.332;2022-08-03T12:51:34;39.50;42.70
13880;DHT22;7010;48.200;16.332;2022-08-03T12:54:04;39.50;41.00
13880;DHT22;7010;48.200;16.332;2022-08-03T12:56:32;39.40;41.20
13880;DHT22;7010;48.200;16.332;2022-08-03T12:59:25;39.40;40.50
13880;DHT22;7010;48.200;16.332;2022-08-03T13:02:01;39.20;41.40
13880;DHT22;7010;48.200;16.332;2022-08-03T13:04:36;38.70;43.00
13880;DHT22;7010;48.200;16.332;2022-08-03T13:07:06;38.90;41.10
13880;DHT22;7010;48.200;16.332;2022-08-03T13:09:47;38.80;41.70
13880;DHT22;7010;48.200;16.332;2022-08-03T13:12:17;38.50;40.30
13880;DHT22;7010;48.200;16.332;2022-08-03T13:14:49;38.40;41.90
13880;DHT22;7010;48.200;16.332;2022-08-03T13:17:18;38.30;41.10
13880;DHT22;7010;48.200;16.332;2022-08-03T13:19:48;37.60;41.40
13880;DHT22;7010;48.200;16.332;2022-08-03T13:22:19;37.50;42.70
13880;DHT22;7010;48.200;16.332;2022-08-03T13:24:51;37.50;42.90
13880;DHT22;7010;48.200;16.332;2022-08-03T13:27:21;37.60;42.00
13880;DHT22;7010;48.200;16.332;2022-08-03T13:30:10;37.60;43.90
13880;DHT22;7010;48.200;16.332;2022-08-03T13:32:43;37.60;41.40
13880;DHT22;7010;48.200;16.332;2022-08-03T13:35:12;37.40;41.90
13880;DHT22;7010;48.200;16.332;2022-08-03T13:37:42;37.30;43.20
13880;DHT22;7010;48.200;16.332;2022-08-03T13:40:16;36.20;41.40
13880;DHT22;7010;48.200;16.332;2022-08-03T13:42:49;36.40;43.40
13880;DHT22;7010;48.200;16.332;2022-08-03T13:45:17;36.10;43.60
13880;DHT22;7010;48.200;16.332;2022-08-03T13:47:46;36.20;42.50
13880;DHT22;7010;48.200;16.332;2022-08-03T13:50:15;36.20;44.10
13880;DHT22;7010;48.200;16.332;2022-08-03T13:52:43;36.10;44.70
13880;DHT22;7010;48.200;16.332;2022-08-03T13:55:13;36.50;43.90
13880;DHT22;7010;48.200;16.332;2022-08-03T13:57:42;36.50;42.90
13880;DHT22;7010;48.200;16.332;2022-08-03T14:00:31;36.40;43.50
13880;DHT22;7010;48.200;16.332;2022-08-03T14:03:00;36.30;43.30
13880;DHT22;7010;48.200;16.332;2022-08-03T14:05:39;36.40;43.80
13880;DHT22;7010;48.200;16.332;2022-08-03T14:08:07;36.40;43.00
13880;DHT22;7010;48.200;16.332;2022-08-03T14:10:37;36.00;44.40
13880;DHT22;7010;48.200;16.332;2022-08-03T14:13:09;36.00;43.50
13880;DHT22;7010;48.200;16.332;2022-08-03T14:15:37;35.90;42.00
13880;DHT22;7010;48.200;16.332;2022-08-03T14:18:06;35.50;42.60
13880;DHT22;7010;48.200;16.332;2022-08-03T14:20:41;35.40;43.40
13880;DHT22;7010;48.200;16.332;2022-08-03T14:23:20;35.30;42.30
13880;DHT22;7010;48.200;16.332;2022-08-03T14:25:48;35.20;42.50
13880;DHT22;7010;48.200;16.332;2022-08-03T14:28:21;35.20;43.80
13880;DHT22;7010;48.200;16.332;2022-08-03T14:30:50;34.90;43.90
13880;DHT22;7010;48.200;16.332;2022-08-03T14:33:18;35.10;44.40
13880;DHT22;7010;48.200;16.332;2022-08-03T14:35:47;34.90;43.20
13880;DHT22;7010;48.200;16.332;2022-08-03T14:38:16;34.90;44.20
13880;DHT22;7010;48.200;16.332;2022-08-03T14:40:45;34.70;44.30
13880;DHT22;7010;48.200;16.332;2022-08-03T14:43:13;34.90;44.60
13880;DHT22;7010;48.200;16.332;2022-08-03T14:45:45;35.00;44.10
13880;DHT22;7010;48.200;16.332;2022-08-03T14:48:13;34.90;43.80
13880;DHT22;7010;48.200;16.332;2022-08-03T14:51:01;34.70;44.50
13880;DHT22;7010;48.200;16.332;2022-08-03T14:53:30;34.60;45.50
13880;DHT22;7010;48.200;16.332;2022-08-03T14:55:58;34.60;44.90
13880;DHT22;7010;48.200;16.332;2022-08-03T14:58:26;34.60;45.30
13880;DHT22;7010;48.200;16.332;2022-08-03T15:00:56;34.70;44.50
13880;DHT22;7010;48.200;16.332;2022-08-03T15:03:24;34.60;43.40
13880;DHT22;7010;48.200;16.332;2022-08-03T15:05:54;34.30;44.70
13880;DHT22;7010;48.200;16.332;2022-08-03T15:08:24;34.30;45.20
13880;DHT22;7010;48.200;16.332;2022-08-03T15:10:53;34.20;45.90
13880;DHT22;7010;48.200;16.332;2022-08-03T15:13:21;34.00;44.70
13880;DHT22;7010;48.200;16.332;2022-08-03T15:15:53;33.90;46.80
13880;DHT22;7010;48.200;16.332;2022-08-03T15:18:24;33.50;45.70
13880;DHT22;7010;48.200;16.332;2022-08-03T15:20:53;33.70;45.60
13880;DHT22;7010;48.200;16.332;2022-08-03T15:23:21;33.50;46.40
13880;DHT22;7010;48.200;16.332;2022-08-03T15:25:49;33.30;45.40
13880;DHT22;7010;48.200;16.332;2022-08-03T15:28:37;33.40;46.60
13880;DHT22;7010;48.200;16.332;2022-08-03T15:31:06;33.20;45.50
13880;DHT22;7010;48.200;16.332;2022-08-03T15:33:36;33.30;46.70
13880;DHT22;7010;48.200;16.332;2022-08-03T15:36:05;33.00;45.50
13880;DHT22;7010;48.200;16.332;2022-08-03T15:38:34;33.00;46.50
13880;DHT22;7010;48.200;16.332;2022-08-03T15:41:02;33.00;45.70
13880;DHT22;7010;48.200;16.332;2022-08-03T15:43:33;32.90;45.80
13880;DHT22;7010;48.200;16.332;2022-08-03T15:46:04;32.90;46.60
13880;DHT22;7010;48.200;16.332;2022-08-03T15:48:54;32.70;46.50
13880;DHT22;7010;48.200;16.332;2022-08-03T15:51:23;32.70;46.50
13880;DHT22;7010;48.200;16.332;2022-08-03T15:53:51;32.70;46.40
13880;DHT22;7010;48.200;16.332;2022-08-03T15:56:19;32.50;44.40
13880;DHT22;7010;48.200;16.332;2022-08-03T15:58:48;32.50;45.70
13880;DHT22;7010;48.200;16.332;2022-08-03T16:01:36;32.40;46.00
13880;DHT22;7010;48.200;16.332;2022-08-03T16:04:06;32.30;45.60